sensor_id;sensor_type;location;lat;lon;timestamp;P1;durP1;ratioP1;P2;durP2;ratioP2
5795;SDS011;2924;51.458;7.046;2023-03-23T00:00:04;6.10;;;3.50;;
5795;SDS011;2924;51.458;7.046;2023-03-23T00:02:31;7.93;;;3.63;;
5795;SDS011;2924;51.458;7.046;2023-03-23T00:05:00;4.87;;;3.00;;
5795;SDS011;2924;51.458;7.046;2023-03-23T00:07:28;5.03;;;2.70;;
5795;SDS011;2924;51.458;7.046;2023-03-23T00:09:54;6.07;;;2.70;;
5795;SDS011;2924;51.458;7.046;2023-03-23T00:12:21;5.60;;;2.97;;
5795;SDS011;2924;51.458;7.046;2023-03-23T00:14:54;3.63;;;2.67;;
5795;SDS011;2924;51.458;7.046;2023-03-23T00:17:20;3.57;;;2.77;;
5795;SDS011;2924;51.458;7.046;2023-03-23T00:19:48;4.47;;;2.20;;
5795;SDS011;2924;51.458;7.046;2023-03-23T00:22:14;2.40;;;2.20;;
5795;SDS011;2924;51.458;7.046;2023-03-23T00:24:42;2.30;;;2.20;;
5795;SDS011;2924;51.458;7.046;2023-03-23T00:27:09;4.00;;;2.40;;
5795;SDS011;2924;51.458;7.046;2023-03-23T00:29:37;7.23;;;1.80;;
5795;SDS011;2924;51.458;7.046;2023-03-23T00:32:04;17.20;;;2.90;;
5795;SDS011;2924;51.458;7.046;2023-03-23T00:34:29;3.23;;;2.03;;
5795;SDS011;2924;51.458;7.046;2023-03-23T00:36:57;6.80;;;1.90;;
5795;SDS011;2924;51.458;7.046;2023-03-23T00:39:23;3.27;;;2.47;;
5795;SDS011;2924;51.458;7.046;2023-03-23T00:41:50;1.87;;;1.80;;
5795;SDS011;2924;51.458;7.046;2023-03-23T00:44:16;2.40;;;1.80;;
5795;SDS011;2924;51.458;7.046;2023-03-23T00:46:45;3.30;;;1.40;;
5795;SDS011;2924;51.458;7.046;2023-03-23T00:49:14;3.83;;;1.80;;
5795;SDS011;2924;51.458;7.046;2023-03-23T00:51:44;2.40;;;1.87;;
5795;SDS011;2924;51.458;7.046;2023-03-23T00:54:10;4.90;;;2.40;;
5795;SDS011;2924;51.458;7.046;2023-03-23T00:56:37;1.83;;;1.67;;
5795;SDS011;2924;51.458;7.046;2023-03-23T00:59:04;4.23;;;1.77;;
5795;SDS011;2924;51.458;7.046;2023-03-23T01:01:30;2.40;;;2.27;;
5795;SDS011;2924;51.458;7.046;2023-03-23T01:03:57;4.63;;;2.33;;
5795;SDS011;2924;51.458;7.046;2023-03-23T01:06:26;1.97;;;1.63;;
5795;SDS011;2924;51.458;7.046;2023-03-23T01:08:53;3.60;;;1.73;;
5795;SDS011;2924;51.458;7.046;2023-03-23T01:11:19;2.30;;;2.10;;
5795;SDS011;2924;51.458;7.046;2023-03-23T01:13:45;2.33;;;1.70;;
5795;SDS011;2924;51.458;7.046;2023-03-23T01:16:11;1.70;;;1.60;;
5795;SDS011;2924;51.458;7.046;2023-03-23T01:18:38;3.93;;;1.70;;
5795;SDS011;2924;51.458;7.046;2023-03-23T01:21:08;2.17;;;1.57;;
5795;SDS011;2924;51.458;7.046;2023-03-23T01:23:36;3.30;;;2.70;;
5795;SDS011;2924;51.458;7.046;2023-03-23T01:26:08;2.30;;;2.10;;
5795;SDS011;2924;51.458;7.046;2023-03-23T01:28:35;2.50;;;1.30;;
5795;SDS011;2924;51.458;7.046;2023-03-23T01:31:02;2.10;;;1.43;;
5795;SDS011;2924;51.458;7.046;2023-03-23T01:33:30;2.13;;;1.90;;
5795;SDS011;2924;51.458;7.046;2023-03-23T01:35:56;1.63;;;1.47;;
5795;SDS011;2924;51.458;7.046;2023-03-23T01:38:21;2.27;;;1.60;;
5795;SDS011;2924;51.458;7.046;2023-03-23T01:40:47;6.00;;;1.60;;
5795;SDS011;2924;51.458;7.046;2023-03-23T01:43:13;3.73;;;2.17;;
5795;SDS011;2924;51.458;7.046;2023-03-23T01:45:40;1.67;;;1.57;;
5795;SDS011;2924;51.458;7.046;2023-03-23T01:48:13;3.27;;;1.30;;
5795;SDS011;2924;51.458;7.046;2023-03-23T01:50:45;4.13;;;2.10;;
5795;SDS011;2924;51.458;7.046;2023-03-23T01:53:19;10.50;;;2.50;;
5795;SDS011;2924;51.458;7.046;2023-03-23T01:55:45;9.03;;;2.33;;
5795;SDS011;2924;51.458;7.046;2023-03-23T01:58:15;4.40;;;1.83;;
5795;SDS011;2924;51.458;7.046;2023-03-23T02:00:44;2.30;;;1.37;;
5795;SDS011;2924;51.458;7.046;2023-03-23T02:03:09;1.33;;;1.20;;
5795;SDS011;2924;51.458;7.046;2023-03-23T02:05:39;1.50;;;1.40;;
5795;SDS011;2924;51.458;7.046;2023-03-23T02:08:06;3.37;;;1.43;;
5795;SDS011;2924;51.458;7.046;2023-03-23T02:10:33;1.57;;;1.40;;
5795;SDS011;2924;51.458;7.046;2023-03-23T02:13:00;1.47;;;1.37;;
5795;SDS011;2924;51.458;7.046;2023-03-23T02:15:31;2.87;;;1.80;;
5795;SDS011;2924;51.458;7.046;2023-03-23T02:18:12;2.43;;;1.97;;
5795;SDS011;2924;51.458;7.046;2023-03-23T02:27:22;4.47;;;1.53;;
5795;SDS011;2924;51.458;7.046;2023-03-23T02:36:10;6.77;;;2.13;;
5795;SDS011;2924;51.458;7.046;2023-03-23T02:39:05;3.00;;;2.20;;
5795;SDS011;2924;51.458;7.046;2023-03-23T02:41:39;3.80;;;1.30;;
5795;SDS011;2924;51.458;7.046;2023-03-23T02:44:24;2.83;;;1.77;;
5795;SDS011;2924;51.458;7.046;2023-03-23T02:46:55;2.30;;;2.10;;
5795;SDS011;2924;51.458;7.046;2023-03-23T02:49:22;1.90;;;1.80;;
5795;SDS011;2924;51.458;7.046;2023-03-23T02:51:50;4.63;;;2.40;;
5795;SDS011;2924;51.458;7.046;2023-03-23T02:54:18;2.30;;;2.10;;
5795;SDS011;2924;51.458;7.046;2023-03-23T02:56:45;2.60;;;2.30;;
5795;SDS011;2924;51.458;7.046;2023-03-23T02:59:11;5.30;;;2.30;;
5795;SDS011;2924;51.458;7.046;2023-03-23T03:04:03;2.93;;;2.50;;
5795;SDS011;2924;51.458;7.046;2023-03-23T03:06:36;2.93;;;2.33;;
5795;SDS011;2924;51.458;7.046;2023-03-23T03:09:19;4.13;;;2.20;;
5795;SDS011;2924;51.458;7.046;2023-03-23T03:12:08;3.13;;;2.33;;
5795;SDS011;2924;51.458;7.046;2023-03-23T03:14:42;4.83;;;2.57;;
5795;SDS011;2924;51.458;7.046;2023-03-23T03:17:23;2.93;;;2.60;;
5795;SDS011;2924;51.458;7.046;2023-03-23T03:19:50;6.17;;;2.37;;
5795;SDS011;2924;51.458;7.046;2023-03-23T03:22:21;5.60;;;2.40;;
5795;SDS011;2924;51.458;7.046;2023-03-23T03:24:54;3.77;;;2.90;;
5795;SDS011;2924;51.458;7.046;2023-03-23T03:27:22;2.90;;;2.37;;
5795;SDS011;2924;51.458;7.046;2023-03-23T03:29:51;3.30;;;3.00;;
5795;SDS011;2924;51.458;7.046;2023-03-23T03:32:22;8.20;;;2.33;;
5795;SDS011;2924;51.458;7.046;2023-03-23T03:34:55;3.17;;;2.60;;
5795;SDS011;2924;51.458;7.046;2023-03-23T03:37:23;8.37;;;2.20;;
5795;SDS011;2924;51.458;7.046;2023-03-23T03:39:49;2.77;;;2.00;;
5795;SDS011;2924;51.458;7.046;2023-03-23T03:42:16;3.80;;;2.17;;
5795;SDS011;2924;51.458;7.046;2023-03-23T03:44:41;2.10;;;2.00;;
5795;SDS011;2924;51.458;7.046;2023-03-23T03:47:07;1.93;;;1.83;;
5795;SDS011;2924;51.458;7.046;2023-03-23T03:49:33;2.40;;;1.70;;
5795;SDS011;2924;51.458;7.046;2023-03-23T03:51:58;3.17;;;1.30;;
5795;SDS011;2924;51.458;7.046;2023-03-23T03:54:24;2.57;;;1.87;;
5795;SDS011;2924;51.458;7.046;2023-03-23T03:56:49;2.30;;;1.60;;
5795;SDS011;2924;51.458;7.046;2023-03-23T03:59:16;1.73;;;1.63;;
5795;SDS011;2924;51.458;7.046;2023-03-23T04:01:42;1.30;;;1.20;;
5795;SDS011;2924;51.458;7.046;2023-03-23T04:04:08;1.47;;;1.20;;
5795;SDS011;2924;51.458;7.046;2023-03-23T04:06:33;6.17;;;1.53;;
5795;SDS011;2924;51.458;7.046;2023-03-23T04:09:01;1.17;;;1.17;;
5795;SDS011;2924;51.458;7.046;2023-03-23T04:11:30;1.83;;;1.63;;
5795;SDS011;2924;51.458;7.046;2023-03-23T04:13:56;5.90;;;1.80;;
5795;SDS011;2924;51.458;7.046;2023-03-23T04:16:21;1.70;;;1.60;;
5795;SDS011;2924;51.458;7.046;2023-03-23T04:18:47;3.37;;;1.43;;
5795;SDS011;2924;51.458;7.046;2023-03-23T04:21:13;1.57;;;1.47;;
5795;SDS011;2924;51.458;7.046;2023-03-23T04:23:39;2.33;;;1.60;;
5795;SDS011;2924;51.458;7.046;2023-03-23T04:26:05;1.43;;;1.20;;
5795;SDS011;2924;51.458;7.046;2023-03-23T04:28:31;2.00;;;1.80;;
5795;SDS011;2924;51.458;7.046;2023-03-23T04:30:58;2.40;;;1.53;;
5795;SDS011;2924;51.458;7.046;2023-03-23T04:33:26;1.67;;;1.57;;
5795;SDS011;2924;51.458;7.046;2023-03-23T04:35:52;2.17;;;1.20;;
5795;SDS011;2924;51.458;7.046;2023-03-23T04:38:20;2.90;;;1.60;;
5795;SDS011;2924;51.458;7.046;2023-03-23T04:40:49;2.27;;;1.33;;
5795;SDS011;2924;51.458;7.046;2023-03-23T04:43:16;1.90;;;1.80;;
5795;SDS011;2924;51.458;7.046;2023-03-23T04:45:46;1.33;;;1.27;;
5795;SDS011;2924;51.458;7.046;2023-03-23T04:48:12;1.47;;;1.40;;
5795;SDS011;2924;51.458;7.046;2023-03-23T04:50:38;1.60;;;1.50;;
5795;SDS011;2924;51.458;7.046;2023-03-23T04:53:04;1.77;;;1.67;;
5795;SDS011;2924;51.458;7.046;2023-03-23T04:55:31;2.73;;;1.47;;
5795;SDS011;2924;51.458;7.046;2023-03-23T04:58:02;2.00;;;1.40;;
5795;SDS011;2924;51.458;7.046;2023-03-23T05:00:28;2.03;;;1.47;;
5795;SDS011;2924;51.458;7.046;2023-03-23T05:02:54;1.97;;;1.73;;
5795;SDS011;2924;51.458;7.046;2023-03-23T05:05:20;5.37;;;1.60;;
5795;SDS011;2924;51.458;7.046;2023-03-23T05:07:47;1.33;;;1.27;;
5795;SDS011;2924;51.458;7.046;2023-03-23T05:10:14;1.17;;;1.13;;
5795;SDS011;2924;51.458;7.046;2023-03-23T05:12:41;5.63;;;1.50;;
5795;SDS011;2924;51.458;7.046;2023-03-23T05:15:07;1.43;;;1.27;;
5795;SDS011;2924;51.458;7.046;2023-03-23T05:17:34;1.67;;;1.57;;
5795;SDS011;2924;51.458;7.046;2023-03-23T05:20:00;2.17;;;1.50;;
5795;SDS011;2924;51.458;7.046;2023-03-23T05:22:29;1.53;;;1.00;;
5795;SDS011;2924;51.458;7.046;2023-03-23T05:24:57;4.47;;;1.70;;
5795;SDS011;2924;51.458;7.046;2023-03-23T05:27:23;1.30;;;1.30;;
5795;SDS011;2924;51.458;7.046;2023-03-23T05:29:49;1.77;;;1.67;;
5795;SDS011;2924;51.458;7.046;2023-03-23T05:32:17;2.20;;;1.30;;
5795;SDS011;2924;51.458;7.046;2023-03-23T05:34:45;1.60;;;1.50;;
5795;SDS011;2924;51.458;7.046;2023-03-23T05:37:12;2.00;;;1.50;;
5795;SDS011;2924;51.458;7.046;2023-03-23T05:39:38;1.50;;;1.40;;
5795;SDS011;2924;51.458;7.046;2023-03-23T05:42:05;1.43;;;1.33;;
5795;SDS011;2924;51.458;7.046;2023-03-23T05:44:32;1.90;;;1.47;;
5795;SDS011;2924;51.458;7.046;2023-03-23T05:46:58;1.80;;;1.70;;
5795;SDS011;2924;51.458;7.046;2023-03-23T05:49:23;1.63;;;1.53;;
5795;SDS011;2924;51.458;7.046;2023-03-23T05:51:51;1.50;;;1.40;;
5795;SDS011;2924;51.458;7.046;2023-03-23T05:54:16;3.83;;;1.30;;
5795;SDS011;2924;51.458;7.046;2023-03-23T05:56:42;1.20;;;1.10;;
5795;SDS011;2924;51.458;7.046;2023-03-23T05:59:08;2.03;;;1.80;;
5795;SDS011;2924;51.458;7.046;2023-03-23T06:01:35;1.80;;;1.70;;
5795;SDS011;2924;51.458;7.046;2023-03-23T06:04:02;3.60;;;1.77;;
5795;SDS011;2924;51.458;7.046;2023-03-23T06:06:28;2.40;;;1.33;;
5795;SDS011;2924;51.458;7.046;2023-03-23T06:08:55;1.87;;;1.40;;
5795;SDS011;2924;51.458;7.046;2023-03-23T06:11:22;2.20;;;1.07;;
5795;SDS011;2924;51.458;7.046;2023-03-23T06:13:48;4.00;;;1.57;;
5795;SDS011;2924;51.458;7.046;2023-03-23T06:16:13;4.23;;;2.00;;
5795;SDS011;2924;51.458;7.046;2023-03-23T06:18:39;2.40;;;1.40;;
5795;SDS011;2924;51.458;7.046;2023-03-23T06:21:05;4.30;;;2.43;;
5795;SDS011;2924;51.458;7.046;2023-03-23T06:23:31;1.20;;;1.10;;
5795;SDS011;2924;51.458;7.046;2023-03-23T06:25:58;3.10;;;1.63;;
5795;SDS011;2924;51.458;7.046;2023-03-23T06:28:26;8.27;;;1.70;;
5795;SDS011;2924;51.458;7.046;2023-03-23T06:30:52;3.37;;;1.77;;
5795;SDS011;2924;51.458;7.046;2023-03-23T06:33:17;2.90;;;1.43;;
5795;SDS011;2924;51.458;7.046;2023-03-23T06:35:44;2.00;;;1.17;;
5795;SDS011;2924;51.458;7.046;2023-03-23T06:38:09;4.73;;;1.93;;
5795;SDS011;2924;51.458;7.046;2023-03-23T06:40:35;2.40;;;1.67;;
5795;SDS011;2924;51.458;7.046;2023-03-23T06:43:01;2.03;;;1.50;;
5795;SDS011;2924;51.458;7.046;2023-03-23T06:45:28;3.63;;;1.30;;
5795;SDS011;2924;51.458;7.046;2023-03-23T06:47:54;3.40;;;1.70;;
5795;SDS011;2924;51.458;7.046;2023-03-23T06:50:20;2.00;;;1.90;;
5795;SDS011;2924;51.458;7.046;2023-03-23T06:52:46;3.80;;;1.53;;
5795;SDS011;2924;51.458;7.046;2023-03-23T06:55:13;1.33;;;1.20;;
5795;SDS011;2924;51.458;7.046;2023-03-23T06:57:39;4.17;;;1.53;;
5795;SDS011;2924;51.458;7.046;2023-03-23T07:00:06;1.77;;;1.07;;
5795;SDS011;2924;51.458;7.046;2023-03-23T07:02:34;4.53;;;1.43;;
5795;SDS011;2924;51.458;7.046;2023-03-23T07:05:00;2.53;;;1.27;;
5795;SDS011;2924;51.458;7.046;2023-03-23T07:07:28;7.40;;;1.70;;
5795;SDS011;2924;51.458;7.046;2023-03-23T07:09:53;3.50;;;1.50;;
5795;SDS011;2924;51.458;7.046;2023-03-23T07:12:20;12.63;;;1.90;;
5795;SDS011;2924;51.458;7.046;2023-03-23T07:14:46;5.77;;;2.40;;
5795;SDS011;2924;51.458;7.046;2023-03-23T07:17:12;2.23;;;1.40;;
5795;SDS011;2924;51.458;7.046;2023-03-23T07:19:37;3.70;;;1.57;;
5795;SDS011;2924;51.458;7.046;2023-03-23T07:22:04;3.37;;;1.33;;
5795;SDS011;2924;51.458;7.046;2023-03-23T07:24:32;4.17;;;2.27;;
5795;SDS011;2924;51.458;7.046;2023-03-23T07:26:59;2.87;;;1.60;;
5795;SDS011;2924;51.458;7.046;2023-03-23T07:29:25;6.13;;;2.40;;
5795;SDS011;2924;51.458;7.046;2023-03-23T07:31:51;3.53;;;1.53;;
5795;SDS011;2924;51.458;7.046;2023-03-23T07:34:17;2.97;;;1.20;;
5795;SDS011;2924;51.458;7.046;2023-03-23T07:36:44;1.90;;;1.20;;
5795;SDS011;2924;51.458;7.046;2023-03-23T07:39:10;7.87;;;1.83;;
5795;SDS011;2924;51.458;7.046;2023-03-23T07:41:37;2.93;;;1.57;;
5795;SDS011;2924;51.458;7.046;2023-03-23T07:44:03;2.83;;;1.70;;
5795;SDS011;2924;51.458;7.046;2023-03-23T07:46:29;4.60;;;1.20;;
5795;SDS011;2924;51.458;7.046;2023-03-23T07:48:55;3.67;;;1.30;;
5795;SDS011;2924;51.458;7.046;2023-03-23T07:51:21;2.33;;;1.20;;
5795;SDS011;2924;51.458;7.046;2023-03-23T07:53:47;4.03;;;0.80;;
5795;SDS011;2924;51.458;7.046;2023-03-23T07:56:14;2.17;;;1.27;;
5795;SDS011;2924;51.458;7.046;2023-03-23T07:58:43;2.57;;;1.00;;
5795;SDS011;2924;51.458;7.046;2023-03-23T08:01:09;5.87;;;1.80;;
5795;SDS011;2924;51.458;7.046;2023-03-23T08:03:36;4.90;;;1.37;;
5795;SDS011;2924;51.458;7.046;2023-03-23T08:06:02;3.23;;;0.90;;
5795;SDS011;2924;51.458;7.046;2023-03-23T08:08:28;4.17;;;1.80;;
5795;SDS011;2924;51.458;7.046;2023-03-23T08:10:53;3.43;;;1.23;;
5795;SDS011;2924;51.458;7.046;2023-03-23T08:13:19;3.60;;;1.43;;
5795;SDS011;2924;51.458;7.046;2023-03-23T08:15:45;2.63;;;1.70;;
5795;SDS011;2924;51.458;7.046;2023-03-23T08:18:10;2.97;;;1.43;;
5795;SDS011;2924;51.458;7.046;2023-03-23T08:20:36;2.30;;;0.93;;
5795;SDS011;2924;51.458;7.046;2023-03-23T08:23:03;4.60;;;2.17;;
5795;SDS011;2924;51.458;7.046;2023-03-23T08:25:29;6.23;;;1.33;;
5795;SDS011;2924;51.458;7.046;2023-03-23T08:27:59;2.87;;;1.07;;
5795;SDS011;2924;51.458;7.046;2023-03-23T08:30:26;5.17;;;1.60;;
5795;SDS011;2924;51.458;7.046;2023-03-23T08:32:54;3.40;;;1.33;;
5795;SDS011;2924;51.458;7.046;2023-03-23T08:35:21;1.90;;;1.23;;
5795;SDS011;2924;51.458;7.046;2023-03-23T08:37:47;1.43;;;1.10;;
5795;SDS011;2924;51.458;7.046;2023-03-23T08:40:16;4.13;;;1.67;;
5795;SDS011;2924;51.458;7.046;2023-03-23T08:42:44;4.30;;;0.97;;
5795;SDS011;2924;51.458;7.046;2023-03-23T08:45:11;5.60;;;1.80;;
5795;SDS011;2924;51.458;7.046;2023-03-23T08:47:39;3.30;;;1.37;;
5795;SDS011;2924;51.458;7.046;2023-03-23T08:50:07;1.23;;;1.03;;
5795;SDS011;2924;51.458;7.046;2023-03-23T08:52:36;7.57;;;1.20;;
5795;SDS011;2924;51.458;7.046;2023-03-23T08:55:02;4.70;;;1.43;;
5795;SDS011;2924;51.458;7.046;2023-03-23T08:57:28;1.80;;;0.93;;
5795;SDS011;2924;51.458;7.046;2023-03-23T08:59:54;2.63;;;1.30;;
5795;SDS011;2924;51.458;7.046;2023-03-23T09:02:25;4.37;;;1.40;;
5795;SDS011;2924;51.458;7.046;2023-03-23T09:04:51;3.40;;;1.27;;
5795;SDS011;2924;51.458;7.046;2023-03-23T09:07:18;4.03;;;1.30;;
5795;SDS011;2924;51.458;7.046;2023-03-23T09:09:43;6.87;;;1.20;;
5795;SDS011;2924;51.458;7.046;2023-03-23T09:12:10;2.83;;;1.27;;
5795;SDS011;2924;51.458;7.046;2023-03-23T09:14:37;5.77;;;1.43;;
5795;SDS011;2924;51.458;7.046;2023-03-23T09:17:03;7.53;;;1.47;;
5795;SDS011;2924;51.458;7.046;2023-03-23T09:19:29;10.90;;;1.33;;
5795;SDS011;2924;51.458;7.046;2023-03-23T09:21:56;5.40;;;1.13;;
5795;SDS011;2924;51.458;7.046;2023-03-23T09:24:21;6.77;;;1.50;;
5795;SDS011;2924;51.458;7.046;2023-03-23T09:26:47;3.93;;;1.87;;
5795;SDS011;2924;51.458;7.046;2023-03-23T09:29:13;2.00;;;1.30;;
5795;SDS011;2924;51.458;7.046;2023-03-23T09:31:39;5.13;;;1.23;;
5795;SDS011;2924;51.458;7.046;2023-03-23T09:34:08;4.37;;;1.77;;
5795;SDS011;2924;51.458;7.046;2023-03-23T09:36:35;4.57;;;1.40;;
5795;SDS011;2924;51.458;7.046;2023-03-23T09:39:01;8.17;;;1.20;;
5795;SDS011;2924;51.458;7.046;2023-03-23T09:46:56;18.67;;;2.10;;
5795;SDS011;2924;51.458;7.046;2023-03-23T09:49:37;4.03;;;1.27;;
5795;SDS011;2924;51.458;7.046;2023-03-23T09:52:36;3.30;;;1.00;;
5795;SDS011;2924;51.458;7.046;2023-03-23T09:55:03;6.33;;;1.23;;
5795;SDS011;2924;51.458;7.046;2023-03-23T10:00:37;5.10;;;2.03;;
5795;SDS011;2924;51.458;7.046;2023-03-23T10:03:14;7.40;;;1.63;;
5795;SDS011;2924;51.458;7.046;2023-03-23T10:05:47;10.40;;;1.30;;
5795;SDS011;2924;51.458;7.046;2023-03-23T10:08:15;7.27;;;1.80;;
5795;SDS011;2924;51.458;7.046;2023-03-23T10:13:24;5.80;;;1.73;;
5795;SDS011;2924;51.458;7.046;2023-03-23T10:16:01;8.40;;;1.30;;
5795;SDS011;2924;51.458;7.046;2023-03-23T10:18:41;2.50;;;0.83;;
5795;SDS011;2924;51.458;7.046;2023-03-23T10:21:19;4.00;;;1.03;;
5795;SDS011;2924;51.458;7.046;2023-03-23T10:24:00;5.00;;;1.40;;
5795;SDS011;2924;51.458;7.046;2023-03-23T10:29:29;1.80;;;0.90;;
5795;SDS011;2924;51.458;7.046;2023-03-23T10:32:13;2.40;;;1.10;;
5795;SDS011;2924;51.458;7.046;2023-03-23T10:37:13;3.50;;;1.07;;
5795;SDS011;2924;51.458;7.046;2023-03-23T10:39:53;3.90;;;1.20;;
5795;SDS011;2924;51.458;7.046;2023-03-23T10:42:30;1.97;;;1.10;;
5795;SDS011;2924;51.458;7.046;2023-03-23T10:44:59;2.10;;;0.90;;
5795;SDS011;2924;51.458;7.046;2023-03-23T10:47:35;3.77;;;1.50;;
5795;SDS011;2924;51.458;7.046;2023-03-23T10:50:04;14.23;;;1.30;;
5795;SDS011;2924;51.458;7.046;2023-03-23T10:52:38;5.53;;;1.37;;
5795;SDS011;2924;51.458;7.046;2023-03-23T10:57:35;5.40;;;1.30;;
5795;SDS011;2924;51.458;7.046;2023-03-23T11:00:08;2.20;;;1.10;;
5795;SDS011;2924;51.458;7.046;2023-03-23T11:03:20;2.60;;;1.10;;
5795;SDS011;2924;51.458;7.046;2023-03-23T11:05:50;1.70;;;0.90;;
5795;SDS011;2924;51.458;7.046;2023-03-23T11:08:20;2.47;;;1.17;;
5795;SDS011;2924;51.458;7.046;2023-03-23T11:10:53;4.80;;;1.67;;
5795;SDS011;2924;51.458;7.046;2023-03-23T11:13:22;9.00;;;1.57;;
5795;SDS011;2924;51.458;7.046;2023-03-23T11:15:54;5.43;;;1.90;;
5795;SDS011;2924;51.458;7.046;2023-03-23T11:18:20;4.10;;;1.50;;
5795;SDS011;2924;51.458;7.046;2023-03-23T11:20:49;3.67;;;1.83;;
5795;SDS011;2924;51.458;7.046;2023-03-23T11:23:28;5.07;;;1.73;;
5795;SDS011;2924;51.458;7.046;2023-03-23T11:28:37;3.20;;;2.23;;
5795;SDS011;2924;51.458;7.046;2023-03-23T11:31:08;6.80;;;2.77;;
5795;SDS011;2924;51.458;7.046;2023-03-23T11:33:48;6.87;;;3.07;;
5795;SDS011;2924;51.458;7.046;2023-03-23T11:36:30;5.60;;;3.27;;
5795;SDS011;2924;51.458;7.046;2023-03-23T11:38:58;7.23;;;3.80;;
5795;SDS011;2924;51.458;7.046;2023-03-23T11:41:30;4.33;;;3.60;;
5795;SDS011;2924;51.458;7.046;2023-03-23T11:44:01;6.20;;;4.00;;
5795;SDS011;2924;51.458;7.046;2023-03-23T11:49:47;5.70;;;3.27;;
5795;SDS011;2924;51.458;7.046;2023-03-23T11:52:31;8.63;;;3.47;;
5795;SDS011;2924;51.458;7.046;2023-03-23T11:55:21;4.47;;;1.90;;
5795;SDS011;2924;51.458;7.046;2023-03-23T11:57:52;2.70;;;1.63;;
5795;SDS011;2924;51.458;7.046;2023-03-23T12:00:20;5.80;;;1.43;;
5795;SDS011;2924;51.458;7.046;2023-03-23T12:03:07;3.97;;;1.00;;
5795;SDS011;2924;51.458;7.046;2023-03-23T12:11:27;7.80;;;1.50;;
5795;SDS011;2924;51.458;7.046;2023-03-23T12:19:31;5.43;;;1.60;;
5795;SDS011;2924;51.458;7.046;2023-03-23T12:22:07;1.30;;;1.20;;
5795;SDS011;2924;51.458;7.046;2023-03-23T12:30:21;4.10;;;1.37;;
5795;SDS011;2924;51.458;7.046;2023-03-23T12:32:54;2.10;;;1.50;;
5795;SDS011;2924;51.458;7.046;2023-03-23T12:38:31;4.97;;;1.90;;
5795;SDS011;2924;51.458;7.046;2023-03-23T12:44:07;2.40;;;2.20;;
5795;SDS011;2924;51.458;7.046;2023-03-23T12:46:39;3.17;;;2.10;;
5795;SDS011;2924;51.458;7.046;2023-03-23T12:51:52;2.77;;;1.67;;
5795;SDS011;2924;51.458;7.046;2023-03-23T12:54:39;2.50;;;1.67;;
5795;SDS011;2924;51.458;7.046;2023-03-23T12:57:22;2.00;;;1.50;;
5795;SDS011;2924;51.458;7.046;2023-03-23T13:02:57;3.23;;;1.93;;
5795;SDS011;2924;51.458;7.046;2023-03-23T13:05:32;4.03;;;2.07;;
5795;SDS011;2924;51.458;7.046;2023-03-23T13:08:16;4.37;;;1.80;;
5795;SDS011;2924;51.458;7.046;2023-03-23T13:10:48;3.37;;;2.20;;
5795;SDS011;2924;51.458;7.046;2023-03-23T13:13:59;4.23;;;2.40;;
5795;SDS011;2924;51.458;7.046;2023-03-23T13:22:32;4.27;;;1.60;;
5795;SDS011;2924;51.458;7.046;2023-03-23T13:25:10;3.80;;;1.80;;
5795;SDS011;2924;51.458;7.046;2023-03-23T13:27:42;11.70;;;1.80;;
5795;SDS011;2924;51.458;7.046;2023-03-23T13:30:19;3.40;;;1.53;;
5795;SDS011;2924;51.458;7.046;2023-03-23T13:32:47;4.93;;;2.23;;
5795;SDS011;2924;51.458;7.046;2023-03-23T13:35:14;4.83;;;1.53;;
5795;SDS011;2924;51.458;7.046;2023-03-23T13:37:47;5.90;;;1.60;;
5795;SDS011;2924;51.458;7.046;2023-03-23T13:40:20;4.43;;;1.87;;
5795;SDS011;2924;51.458;7.046;2023-03-23T13:42:58;8.97;;;1.50;;
5795;SDS011;2924;51.458;7.046;2023-03-23T13:48:03;5.03;;;1.43;;
5795;SDS011;2924;51.458;7.046;2023-03-23T13:53:24;2.63;;;1.30;;
5795;SDS011;2924;51.458;7.046;2023-03-23T13:56:18;6.80;;;1.70;;
5795;SDS011;2924;51.458;7.046;2023-03-23T13:58:47;4.03;;;1.93;;
5795;SDS011;2924;51.458;7.046;2023-03-23T14:01:37;4.23;;;2.33;;
5795;SDS011;2924;51.458;7.046;2023-03-23T14:04:10;3.90;;;2.30;;
5795;SDS011;2924;51.458;7.046;2023-03-23T14:06:41;4.30;;;1.50;;
5795;SDS011;2924;51.458;7.046;2023-03-23T14:09:12;4.00;;;2.03;;
5795;SDS011;2924;51.458;7.046;2023-03-23T14:11:49;2.23;;;1.63;;
5795;SDS011;2924;51.458;7.046;2023-03-23T14:14:23;3.10;;;2.10;;
5795;SDS011;2924;51.458;7.046;2023-03-23T14:16:53;2.30;;;1.77;;
5795;SDS011;2924;51.458;7.046;2023-03-23T14:19:31;7.43;;;2.00;;
5795;SDS011;2924;51.458;7.046;2023-03-23T14:21:57;4.27;;;2.70;;
5795;SDS011;2924;51.458;7.046;2023-03-23T14:27:03;8.10;;;2.70;;
5795;SDS011;2924;51.458;7.046;2023-03-23T14:29:35;3.80;;;2.97;;
5795;SDS011;2924;51.458;7.046;2023-03-23T14:32:01;8.03;;;2.57;;
5795;SDS011;2924;51.458;7.046;2023-03-23T14:34:28;3.03;;;2.70;;
5795;SDS011;2924;51.458;7.046;2023-03-23T14:36:56;5.53;;;2.90;;
5795;SDS011;2924;51.458;7.046;2023-03-23T14:39:27;9.63;;;2.60;;
5795;SDS011;2924;51.458;7.046;2023-03-23T14:41:55;4.37;;;2.90;;
5795;SDS011;2924;51.458;7.046;2023-03-23T14:44:37;7.83;;;2.80;;
5795;SDS011;2924;51.458;7.046;2023-03-23T14:47:06;4.03;;;2.40;;
5795;SDS011;2924;51.458;7.046;2023-03-23T14:49:39;3.87;;;2.47;;
5795;SDS011;2924;51.458;7.046;2023-03-23T14:52:11;7.10;;;2.67;;
5795;SDS011;2924;51.458;7.046;2023-03-23T14:54:41;7.80;;;2.30;;
5795;SDS011;2924;51.458;7.046;2023-03-23T14:57:19;3.00;;;2.60;;
5795;SDS011;2924;51.458;7.046;2023-03-23T14:59:51;5.83;;;2.50;;
5795;SDS011;2924;51.458;7.046;2023-03-23T15:04:49;2.87;;;2.63;;
5795;SDS011;2924;51.458;7.046;2023-03-23T15:07:18;4.60;;;2.53;;
5795;SDS011;2924;51.458;7.046;2023-03-23T15:09:45;3.63;;;2.30;;
5795;SDS011;2924;51.458;7.046;2023-03-23T15:12:22;2.93;;;2.30;;
5795;SDS011;2924;51.458;7.046;2023-03-23T15:14:52;3.00;;;2.60;;
5795;SDS011;2924;51.458;7.046;2023-03-23T15:17:21;6.33;;;2.07;;
5795;SDS011;2924;51.458;7.046;2023-03-23T15:19:48;4.10;;;2.00;;
5795;SDS011;2924;51.458;7.046;2023-03-23T15:22:23;2.00;;;1.57;;
5795;SDS011;2924;51.458;7.046;2023-03-23T15:24:50;4.20;;;1.30;;
5795;SDS011;2924;51.458;7.046;2023-03-23T15:27:32;6.63;;;1.90;;
5795;SDS011;2924;51.458;7.046;2023-03-23T15:29:59;4.40;;;2.07;;
5795;SDS011;2924;51.458;7.046;2023-03-23T15:32:38;7.40;;;1.70;;
5795;SDS011;2924;51.458;7.046;2023-03-23T15:35:13;1.57;;;1.47;;
5795;SDS011;2924;51.458;7.046;2023-03-23T15:37:48;2.40;;;1.10;;
5795;SDS011;2924;51.458;7.046;2023-03-23T15:40:26;7.47;;;1.33;;
5795;SDS011;2924;51.458;7.046;2023-03-23T15:43:07;4.47;;;1.67;;
5795;SDS011;2924;51.458;7.046;2023-03-23T15:48:22;1.57;;;1.03;;
5795;SDS011;2924;51.458;7.046;2023-03-23T15:50:48;4.97;;;1.27;;
5795;SDS011;2924;51.458;7.046;2023-03-23T15:53:19;1.07;;;0.80;;
5795;SDS011;2924;51.458;7.046;2023-03-23T15:55:51;5.47;;;2.03;;
5795;SDS011;2924;51.458;7.046;2023-03-23T15:58:17;4.77;;;1.47;;
5795;SDS011;2924;51.458;7.046;2023-03-23T16:00:43;4.43;;;1.23;;
5795;SDS011;2924;51.458;7.046;2023-03-23T16:03:16;3.37;;;1.30;;
5795;SDS011;2924;51.458;7.046;2023-03-23T16:05:48;6.63;;;1.43;;
5795;SDS011;2924;51.458;7.046;2023-03-23T16:11:36;1.90;;;0.97;;
5795;SDS011;2924;51.458;7.046;2023-03-23T16:14:02;2.53;;;1.27;;
5795;SDS011;2924;51.458;7.046;2023-03-23T16:16:28;2.50;;;1.53;;
5795;SDS011;2924;51.458;7.046;2023-03-23T16:18:57;3.13;;;1.40;;
5795;SDS011;2924;51.458;7.046;2023-03-23T16:21:23;5.27;;;1.57;;
5795;SDS011;2924;51.458;7.046;2023-03-23T16:23:49;2.87;;;1.60;;
5795;SDS011;2924;51.458;7.046;2023-03-23T16:26:14;6.50;;;1.90;;
5795;SDS011;2924;51.458;7.046;2023-03-23T16:28:41;9.87;;;1.50;;
5795;SDS011;2924;51.458;7.046;2023-03-23T16:31:07;2.20;;;1.33;;
5795;SDS011;2924;51.458;7.046;2023-03-23T16:33:33;7.23;;;2.00;;
5795;SDS011;2924;51.458;7.046;2023-03-23T16:35:58;5.23;;;1.73;;
5795;SDS011;2924;51.458;7.046;2023-03-23T16:38:24;2.10;;;1.17;;
5795;SDS011;2924;51.458;7.046;2023-03-23T16:40:50;5.73;;;1.70;;
5795;SDS011;2924;51.458;7.046;2023-03-23T16:43:15;4.73;;;1.80;;
5795;SDS011;2924;51.458;7.046;2023-03-23T16:45:41;2.30;;;1.73;;
5795;SDS011;2924;51.458;7.046;2023-03-23T16:48:09;5.93;;;1.63;;
5795;SDS011;2924;51.458;7.046;2023-03-23T16:50:35;5.17;;;1.70;;
5795;SDS011;2924;51.458;7.046;2023-03-23T16:53:02;6.20;;;1.97;;
5795;SDS011;2924;51.458;7.046;2023-03-23T16:55:29;7.10;;;1.90;;
5795;SDS011;2924;51.458;7.046;2023-03-23T16:57:55;6.13;;;2.00;;
5795;SDS011;2924;51.458;7.046;2023-03-23T17:00:21;4.53;;;1.83;;